Terminal Aerodrome Forecast
Issued by NWS

Home | Current Version | Previous Version | Text Only | Print | Product List | Glossary On
Versions: 1 2 3 4 5 6 7 8 9 10 11 12 13 14 15 16
000
FTUS46 KSTO 241142
TAFSCK
TAF
KSCK 241142Z 2412/2512 31008KT P6SM FEW250
     FM250300 30012KT P6SM BKN100
      TEMPO 2509/2512 BKN050=

USA.gov is the U.S. government's official web portal to all federal, state and local government web resources and services.